createdAt,value
2019-05-03T00:02:33.652Z,58.27
2019-05-03T00:05:50.216Z,58.28
2019-05-03T00:08:33.339Z,58.17
2019-05-03T00:11:36.423Z,58.20
2019-05-03T00:14:28.367Z,58.31
2019-05-03T00:17:22.237Z,58.38
2019-05-03T00:23:45.688Z,58.53
2019-05-03T00:26:19.723Z,58.54
2019-05-03T00:28:52.982Z,58.56
2019-05-03T00:31:26.687Z,58.68
2019-05-03T00:34:22.259Z,58.65
2019-05-03T00:37:07.143Z,58.69
2019-05-03T00:40:16.392Z,58.63
2019-05-03T00:42:58.338Z,58.66
2019-05-03T00:45:31.616Z,58.67
2019-05-03T00:48:03.382Z,58.75
2019-05-03T00:50:36.002Z,58.79
2019-05-03T00:53:11.643Z,58.86
2019-05-03T00:55:44.790Z,58.87
2019-05-03T00:58:17.009Z,58.88
2019-05-03T01:00:52.432Z,58.88
2019-05-03T01:03:25.444Z,58.96
2019-05-03T01:05:59.545Z,59.03
2019-05-03T01:08:41.931Z,59.06
2019-05-03T01:11:22.201Z,59.10
2019-05-03T01:14:04.877Z,59.05
2019-05-03T01:16:42.721Z,59.09
2019-05-03T01:19:14.583Z,59.17
2019-05-03T01:21:51.474Z,59.20
2019-05-03T01:24:33.899Z,59.26
2019-05-03T01:27:18.387Z,59.37
2019-05-03T01:29:58.573Z,59.41
2019-05-03T01:32:52.364Z,59.46
2019-05-03T01:35:35.338Z,59.53
2019-05-03T01:38:31.891Z,59.57
2019-05-03T01:41:04.189Z,59.59
2019-05-03T01:43:36.140Z,59.57
2019-05-03T01:46:08.109Z,59.60
2019-05-03T01:48:58.660Z,59.66
2019-05-03T01:51:42.045Z,59.71
2019-05-03T01:54:13.952Z,59.69
2019-05-03T01:56:56.012Z,59.71
2019-05-03T01:59:19.429Z,59.75
2019-05-03T02:02:08.852Z,59.76
2019-05-03T02:04:49.058Z,59.79
2019-05-03T02:07:22.384Z,59.76
2019-05-03T02:09:54.183Z,59.76
2019-05-03T02:12:26.337Z,59.85
2019-05-03T02:14:58.300Z,59.90
2019-05-03T02:17:31.901Z,59.97
2019-05-03T02:20:03.658Z,60.06
2019-05-03T02:22:35.410Z,60.12
2019-05-03T02:25:07.422Z,60.14
2019-05-03T02:27:39.270Z,60.14
2019-05-03T02:30:14.301Z,60.20
2019-05-03T02:32:44.903Z,60.20
2019-05-03T02:35:16.649Z,60.21
2019-05-03T02:37:53.264Z,60.24
2019-05-03T02:40:25.672Z,60.24
2019-05-03T02:43:19.244Z,60.25
2019-05-03T02:46:07.893Z,60.22
2019-05-03T02:48:50.181Z,60.21
2019-05-03T02:51:22.016Z,60.20
2019-05-03T02:53:56.788Z,60.24
2019-05-03T02:56:27.634Z,60.25
2019-05-03T02:58:59.461Z,60.29
2019-05-03T03:01:31.720Z,60.33
2019-05-03T03:04:05.312Z,60.32
2019-05-03T03:06:40.353Z,60.34
2019-05-03T03:09:12.840Z,60.33
2019-05-03T03:11:48.076Z,60.36
2019-05-03T03:14:22.229Z,60.38
2019-05-03T03:16:56.180Z,60.44
2019-05-03T03:19:31.131Z,60.45
2019-05-03T03:22:07.413Z,60.48
2019-05-03T03:24:45.910Z,60.56
2019-05-03T03:27:25.597Z,60.62
2019-05-03T03:30:29.257Z,60.67
2019-05-03T03:33:08.749Z,60.70
2019-05-03T03:35:48.453Z,60.77
2019-05-03T03:38:20.540Z,60.78
2019-05-03T03:40:56.449Z,60.67
2019-05-03T03:43:28.887Z,60.61
2019-05-03T03:46:05.243Z,60.58
2019-05-03T03:48:39.378Z,60.64
2019-05-03T03:51:15.457Z,60.64
2019-05-03T03:53:50.989Z,60.62
2019-05-03T03:56:25.537Z,60.66
2019-05-03T03:58:59.187Z,60.65
2019-05-03T04:01:34.929Z,60.64
2019-05-03T04:04:07.820Z,60.63
2019-05-03T04:06:41.266Z,60.66
2019-05-03T04:09:15.888Z,60.67
2019-05-03T04:11:48.635Z,60.65
2019-05-03T04:14:46.958Z,60.54
2019-05-03T04:17:39.744Z,60.18
2019-05-03T04:20:16.277Z,59.99
2019-05-03T04:22:49.282Z,59.88
2019-05-03T04:25:25.875Z,59.78
2019-05-03T04:27:58.550Z,59.70
2019-05-03T04:30:31.849Z,59.70
2019-05-03T04:33:08.306Z,59.78
2019-05-03T04:35:41.619Z,59.94
2019-05-03T04:38:16.252Z,60.08
2019-05-03T04:40:49.874Z,60.13
2019-05-03T04:43:26.132Z,60.19
2019-05-03T04:46:08.363Z,60.16
2019-05-03T04:48:41.875Z,60.08
2019-05-03T04:51:16.584Z,60.18
2019-05-03T04:54:06.520Z,60.22
2019-05-03T04:56:39.045Z,60.31
2019-05-03T04:59:10.811Z,60.41
2019-05-03T05:01:42.572Z,60.47
2019-05-03T05:04:16.066Z,60.60
2019-05-03T05:06:47.979Z,60.66
2019-05-03T05:09:20.067Z,60.80
2019-05-03T05:11:54.879Z,60.84
2019-05-03T05:14:26.445Z,60.89
2019-05-03T05:16:58.231Z,60.88
2019-05-03T05:19:54.946Z,60.93
2019-05-03T05:22:29.585Z,61.01
2019-05-03T05:25:01.646Z,60.88
2019-05-03T05:27:49.512Z,60.82
2019-05-03T05:30:16.469Z,60.82
2019-05-03T05:32:48.441Z,60.77
2019-05-03T05:35:20.207Z,60.75
2019-05-03T05:37:51.992Z,60.73
2019-05-03T05:40:25.359Z,60.56
2019-05-03T05:42:57.077Z,60.44
2019-05-03T05:45:28.849Z,60.29
2019-05-03T05:48:07.461Z,60.18
2019-05-03T05:50:46.255Z,60.16
2019-05-03T05:53:17.937Z,60.11
2019-05-03T05:56:09.587Z,60.08
2019-05-03T05:58:49.038Z,59.97
2019-05-03T06:01:35.342Z,59.77
2019-05-03T06:04:10.014Z,59.59
2019-05-03T06:07:02.242Z,59.50
2019-05-03T06:09:56.828Z,59.44
2019-05-03T06:12:41.750Z,59.25
2019-05-03T06:15:34.510Z,59.02
2019-05-03T06:18:12.034Z,58.79
2019-05-03T06:20:54.376Z,58.72
2019-05-03T06:23:30.874Z,58.69
2019-05-03T06:26:04.970Z,58.65
2019-05-03T06:28:36.840Z,58.59
2019-05-03T06:31:21.124Z,58.57
2019-05-03T06:33:53.011Z,58.45
2019-05-03T06:36:24.676Z,58.33
2019-05-03T06:38:56.345Z,58.22
2019-05-03T06:41:28.560Z,57.96
2019-05-03T06:44:00.330Z,57.81
2019-05-03T06:46:46.221Z,57.73
2019-05-03T06:49:17.893Z,57.76
2019-05-03T06:51:50.069Z,57.71
2019-05-03T06:54:26.897Z,57.71
2019-05-03T06:56:55.574Z,57.46
2019-05-03T06:59:36.555Z,57.32
2019-05-03T07:02:28.404Z,57.23
2019-05-03T07:04:59.971Z,57.19
2019-05-03T07:07:38.322Z,57.10
2019-05-03T07:10:35.320Z,56.91
2019-05-03T07:13:09.011Z,56.67
2019-05-03T07:15:40.762Z,56.47
2019-05-03T07:18:13.106Z,56.09
2019-05-03T07:20:49.509Z,55.85
2019-05-03T07:23:21.660Z,55.88
2019-05-03T07:25:55.099Z,55.73
2019-05-03T07:28:26.891Z,55.83
2019-05-03T07:30:58.563Z,55.79
2019-05-03T07:33:34.764Z,55.53
2019-05-03T07:36:06.726Z,55.44
2019-05-03T07:38:38.453Z,55.33
2019-05-03T07:41:10.231Z,54.76
2019-05-03T07:43:42.608Z,54.78
2019-05-03T07:46:14.913Z,54.71
2019-05-03T07:48:47.300Z,54.59
2019-05-03T07:51:19.110Z,54.50
2019-05-03T07:53:50.868Z,54.36
2019-05-03T07:56:25.350Z,54.21
2019-05-03T07:59:03.079Z,54.05
2019-05-03T08:01:36.008Z,54.13
2019-05-03T08:04:08.600Z,54.00
2019-05-03T08:06:40.625Z,53.98
2019-05-03T08:09:12.507Z,53.95
2019-05-03T08:11:45.045Z,53.94
2019-05-03T08:14:18.298Z,53.82
2019-05-03T08:16:50.114Z,53.62
2019-05-03T08:19:24.473Z,53.67
2019-05-03T08:21:56.676Z,53.41
2019-05-03T08:24:28.936Z,53.43
2019-05-03T08:27:00.822Z,53.27
2019-05-03T08:29:35.016Z,52.80
2019-05-03T08:32:28.659Z,52.47
2019-05-03T08:35:35.654Z,52.41
2019-05-03T08:38:08.189Z,52.35
2019-05-03T08:40:45.583Z,52.25
2019-05-03T08:43:17.341Z,52.34
2019-05-03T08:45:49.109Z,52.06
2019-05-03T08:48:20.826Z,51.56
2019-05-03T08:50:55.299Z,51.70
2019-05-03T08:53:26.670Z,51.41
2019-05-03T08:55:58.681Z,51.18
2019-05-03T08:58:30.790Z,50.83
2019-05-03T09:01:02.634Z,50.59
2019-05-03T09:03:36.354Z,50.29
2019-05-03T09:06:08.375Z,50.17
2019-05-03T09:08:40.252Z,49.92
2019-05-03T09:11:15.530Z,49.36
2019-05-03T09:13:51.071Z,49.01
2019-05-03T09:16:25.027Z,48.83
2019-05-03T09:18:56.327Z,48.52
2019-05-03T09:21:29.882Z,48.35
2019-05-03T09:24:01.659Z,47.88
2019-05-03T09:26:34.883Z,47.71
2019-05-03T09:29:06.852Z,47.80
2019-05-03T09:31:38.741Z,47.70
2019-05-03T09:34:10.628Z,47.76
2019-05-03T09:36:44.847Z,47.98
2019-05-03T09:39:16.778Z,48.16
2019-05-03T09:41:49.449Z,47.74
2019-05-03T09:44:21.235Z,47.72
2019-05-03T09:46:55.036Z,47.72
2019-05-03T09:49:26.828Z,47.54
2019-05-03T09:51:59.517Z,47.35
2019-05-03T09:54:46.205Z,47.45
2019-05-03T09:57:18.048Z,47.39
2019-05-03T09:59:58.954Z,47.53
2019-05-03T10:02:24.643Z,47.21
2019-05-03T10:04:59.011Z,47.35
2019-05-03T10:07:31.894Z,47.28
2019-05-03T10:10:05.740Z,47.17
2019-05-03T10:12:37.593Z,47.16
2019-05-03T10:15:10.313Z,47.01
2019-05-03T10:17:47.870Z,46.72
2019-05-03T10:20:21.053Z,46.67
2019-05-03T10:22:54.521Z,46.75
2019-05-03T10:25:26.182Z,46.70
2019-05-03T10:27:58.006Z,46.58
2019-05-03T10:30:29.621Z,46.39
2019-05-03T10:33:15.678Z,46.30
2019-05-03T10:35:47.670Z,46.10
2019-05-03T10:38:20.101Z,46.27
2019-05-03T10:40:51.775Z,45.93
2019-05-03T10:43:24.813Z,46.04
2019-05-03T10:45:56.688Z,45.54
2019-05-03T10:48:28.448Z,45.32
2019-05-03T10:51:00.315Z,45.06
2019-05-03T10:53:37.683Z,45.00
2019-05-03T10:56:23.234Z,45.08
2019-05-03T10:58:59.457Z,45.00
2019-05-03T11:01:38.831Z,44.14
2019-05-03T11:04:12.134Z,43.73
2019-05-03T11:06:45.792Z,43.63
2019-05-03T11:09:18.178Z,43.73
2019-05-03T11:11:50.072Z,43.74
2019-05-03T11:14:21.800Z,43.72
2019-05-03T11:16:55.267Z,43.56
2019-05-03T11:19:27.396Z,43.70
2019-05-03T11:21:59.382Z,43.74
2019-05-03T11:24:31.791Z,43.59
2019-05-03T11:27:06.857Z,43.27
2019-05-03T11:29:38.667Z,42.98
2019-05-03T11:32:20.563Z,42.54
2019-05-03T11:35:17.421Z,42.22
2019-05-03T11:37:56.226Z,42.28
2019-05-03T11:40:28.591Z,42.46
2019-05-03T11:43:04.519Z,42.69
2019-05-03T11:45:36.224Z,42.89
2019-05-03T11:48:08.248Z,43.10
2019-05-03T11:50:40.417Z,43.28
2019-05-03T11:53:14.510Z,43.39
2019-05-03T12:01:13.091Z,43.73
2019-05-03T12:03:52.599Z,43.79
2019-05-03T12:06:24.909Z,43.88
2019-05-03T12:08:56.999Z,43.94
2019-05-03T12:11:31.523Z,43.71
2019-05-03T12:14:15.191Z,43.49
2019-05-03T12:17:14.369Z,43.40
2019-05-03T12:19:31.534Z,43.30
2019-05-03T12:22:03.669Z,43.34
2019-05-03T12:24:37.426Z,43.22
2019-05-03T12:27:10.281Z,43.21
2019-05-03T12:29:42.062Z,43.20
2019-05-03T12:32:14.453Z,43.00
2019-05-03T12:34:46.245Z,43.00
2019-05-03T12:37:18.389Z,42.90
2019-05-03T12:39:50.486Z,42.83
2019-05-03T12:42:23.020Z,42.81
2019-05-03T12:44:55.241Z,42.80
2019-05-03T12:47:27.180Z,42.83
2019-05-03T12:49:59.179Z,42.73
2019-05-03T12:52:31.492Z,42.68
2019-05-03T12:55:04.624Z,42.76
2019-05-03T12:57:37.269Z,42.79
2019-05-03T13:00:30.285Z,42.71
2019-05-03T13:03:12.205Z,42.59
2019-05-03T13:05:44.938Z,42.63
2019-05-03T13:08:50.911Z,42.50
2019-05-03T13:11:22.767Z,42.32
2019-05-03T13:13:56.674Z,42.39
2019-05-03T13:16:28.374Z,42.38
2019-05-03T13:19:00.211Z,42.32
2019-05-03T13:21:32.161Z,42.20
2019-05-03T13:24:05.517Z,42.17
2019-05-03T13:26:37.568Z,42.14
2019-05-03T13:29:10.083Z,42.06
2019-05-03T13:31:54.858Z,42.14
2019-05-03T13:34:16.033Z,42.23
2019-05-03T13:36:48.159Z,42.10
2019-05-03T13:39:19.973Z,42.08
2019-05-03T13:41:51.707Z,42.13
2019-05-03T13:44:24.773Z,42.04
2019-05-03T13:46:56.787Z,42.11
2019-05-03T13:49:29.557Z,42.11
2019-05-03T13:52:01.356Z,42.02
2019-05-03T13:54:35.006Z,41.91
2019-05-03T13:57:06.561Z,41.81
2019-05-03T13:59:38.490Z,41.82
2019-05-03T14:02:18.259Z,41.61
2019-05-03T14:04:52.055Z,41.55
2019-05-03T14:07:18.091Z,41.59
2019-05-03T14:09:50.072Z,41.69
2019-05-03T14:12:22.029Z,41.79
2019-05-03T14:14:56.532Z,41.87
2019-05-03T14:17:29.603Z,41.92
2019-05-03T14:20:11.801Z,41.96
2019-05-03T14:22:45.030Z,41.88
2019-05-03T14:25:17.163Z,42.01
2019-05-03T14:27:48.826Z,42.05
2019-05-03T14:30:20.793Z,42.03
2019-05-03T14:32:52.720Z,42.02
2019-05-03T14:35:25.103Z,41.99
2019-05-03T14:37:57.492Z,41.75
2019-05-03T14:40:29.331Z,41.64
2019-05-03T14:43:01.261Z,41.56
2019-05-03T14:45:35.597Z,41.48
2019-05-03T14:48:07.882Z,41.34
2019-05-03T14:50:39.841Z,41.16
2019-05-03T14:53:12.012Z,41.09
2019-05-03T14:55:49.540Z,40.92
2019-05-03T14:58:40.233Z,40.77
2019-05-03T15:01:20.481Z,40.59
2019-05-03T15:03:52.191Z,40.43
2019-05-03T15:06:24.939Z,40.58
2019-05-03T15:08:57.459Z,40.63
2019-05-03T15:11:29.602Z,40.53
2019-05-03T15:14:01.331Z,40.49
2019-05-03T15:16:34.414Z,40.33
2019-05-03T15:19:06.398Z,40.30
2019-05-03T15:21:38.146Z,40.35
2019-05-03T15:24:10.647Z,40.38
2019-05-03T15:26:44.627Z,40.36
2019-05-03T15:29:16.333Z,40.44
2019-05-03T15:31:48.158Z,40.43
2019-05-03T15:34:20.019Z,40.57
2019-05-03T15:36:51.762Z,40.73
2019-05-03T15:39:23.717Z,40.80
2019-05-03T15:41:55.427Z,40.92
2019-05-03T15:44:35.850Z,40.94
2019-05-03T15:47:26.426Z,41.02
2019-05-03T15:49:58.144Z,41.04
2019-05-03T15:52:29.882Z,41.09
2019-05-03T15:55:04.586Z,41.18
2019-05-03T15:57:36.554Z,41.25
2019-05-03T16:00:11.007Z,41.21
2019-05-03T16:02:43.052Z,41.25
2019-05-03T16:05:15.575Z,41.20
2019-05-03T16:07:47.549Z,41.08
2019-05-03T16:10:19.334Z,41.03
2019-05-03T16:12:51.340Z,40.99
2019-05-03T16:15:24.637Z,41.03
2019-05-03T16:17:56.527Z,41.05
2019-05-03T16:20:28.343Z,41.06
2019-05-03T16:23:00.073Z,40.99
2019-05-03T16:25:32.718Z,40.99
2019-05-03T16:28:09.951Z,40.99
2019-05-03T16:30:45.599Z,40.94
2019-05-03T16:33:27.134Z,40.92
2019-05-03T16:35:52.433Z,40.83
2019-05-03T16:38:26.279Z,40.75
2019-05-03T16:40:59.691Z,40.72
2019-05-03T16:43:34.770Z,40.81
2019-05-03T16:46:07.064Z,40.93
2019-05-03T16:48:38.953Z,41.11
2019-05-03T16:51:10.941Z,41.38
2019-05-03T16:53:44.480Z,41.92
2019-05-03T16:56:17.343Z,42.37
2019-05-03T16:58:50.108Z,43.19
2019-05-03T17:01:24.454Z,44.83
2019-05-03T17:04:16.758Z,46.25
2019-05-03T17:06:58.742Z,47.70
2019-05-03T17:09:50.094Z,48.63
2019-05-03T17:12:25.672Z,49.19
2019-05-03T17:14:58.272Z,49.37
2019-05-03T17:17:30.750Z,49.84
2019-05-03T17:20:03.077Z,50.19
2019-05-03T17:22:34.932Z,50.34
2019-05-03T17:25:08.132Z,50.57
2019-05-03T17:27:40.063Z,50.81
2019-05-03T17:30:12.090Z,50.92
2019-05-03T17:32:44.735Z,50.74
2019-05-03T17:35:16.482Z,50.79
2019-05-03T17:37:48.302Z,50.79
2019-05-03T17:40:31.582Z,50.68
2019-05-03T17:43:14.655Z,50.86
2019-05-03T17:45:49.624Z,50.82
2019-05-03T17:48:23.109Z,50.75
2019-05-03T17:50:55.174Z,51.01
2019-05-03T17:53:49.422Z,51.10
2019-05-03T17:56:29.450Z,51.32
2019-05-03T17:59:11.612Z,51.43
2019-05-03T18:02:00.899Z,51.43
2019-05-03T18:04:50.559Z,51.41
2019-05-03T18:07:41.428Z,51.54
2019-05-03T18:10:15.217Z,51.51
2019-05-03T18:12:50.242Z,51.61
2019-05-03T18:15:22.108Z,51.82
2019-05-03T18:17:54.914Z,52.02
2019-05-03T18:20:27.161Z,52.08
2019-05-03T18:22:59.202Z,52.11
2019-05-03T18:25:31.614Z,52.32
2019-05-03T18:28:03.499Z,52.48
2019-05-03T18:30:35.353Z,52.72
2019-05-03T18:33:07.305Z,52.83
2019-05-03T18:35:43.581Z,53.05
2019-05-03T18:38:15.549Z,53.10
2019-05-03T18:40:47.715Z,53.15
2019-05-03T18:43:35.735Z,53.24
2019-05-03T18:46:28.942Z,53.34
2019-05-03T18:49:01.055Z,53.29
2019-05-03T18:51:34.405Z,53.27
2019-05-03T18:54:07.389Z,53.54
2019-05-03T18:56:41.006Z,53.52
2019-05-03T18:59:14.637Z,53.66
2019-05-03T19:01:46.549Z,53.68
2019-05-03T19:04:40.248Z,53.70
2019-05-03T19:07:23.686Z,53.83
2019-05-03T19:13:35.719Z,54.07
2019-05-03T19:16:45.514Z,54.07
2019-05-03T19:19:19.305Z,54.24
2019-05-03T19:21:51.772Z,54.29
2019-05-03T19:24:24.548Z,54.39
2019-05-03T19:26:56.779Z,54.53
2019-05-03T19:29:28.785Z,54.61
2019-05-03T19:32:02.196Z,54.60
2019-05-03T19:34:46.867Z,54.58
2019-05-03T19:37:07.754Z,54.48
2019-05-03T19:39:39.650Z,54.56
2019-05-03T19:42:11.554Z,54.60
2019-05-03T19:44:45.396Z,54.57
2019-05-03T19:47:17.455Z,54.59
2019-05-03T19:49:49.665Z,54.65
2019-05-03T19:52:25.491Z,54.83
2019-05-03T19:54:57.525Z,54.91
2019-05-03T19:57:35.031Z,55.08
2019-05-03T20:00:08.636Z,55.19
2019-05-03T20:02:47.306Z,55.21
2019-05-03T20:05:38.445Z,55.33
2019-05-03T20:08:35.340Z,55.43
2019-05-03T20:11:19.788Z,55.47
2019-05-03T20:13:51.952Z,55.52
2019-05-03T20:16:23.874Z,55.58
2019-05-03T20:18:55.724Z,55.71
2019-05-03T20:21:27.774Z,55.81
2019-05-03T20:23:59.729Z,55.98
2019-05-03T20:26:34.603Z,56.07
2019-05-03T20:29:05.670Z,56.04
2019-05-03T20:31:37.568Z,55.96
2019-05-03T20:34:09.504Z,55.88
2019-05-03T20:36:41.485Z,55.76
2019-05-03T20:39:14.821Z,55.68
2019-05-03T20:41:46.941Z,55.57
2019-05-03T20:44:40.561Z,55.54
2019-05-03T20:47:31.385Z,55.58
2019-05-03T20:50:15.650Z,55.58
2019-05-03T20:52:47.850Z,55.65
2019-05-03T20:55:19.578Z,55.73
2019-05-03T20:57:51.727Z,55.77
2019-05-03T21:00:25.717Z,55.75
2019-05-03T21:02:58.157Z,55.65
2019-05-03T21:05:34.318Z,55.62
2019-05-03T21:08:05.571Z,55.55
2019-05-03T21:10:37.553Z,55.52
2019-05-03T21:13:09.604Z,55.39
2019-05-03T21:15:47.763Z,55.33
2019-05-03T21:18:57.094Z,55.35
2019-05-03T21:21:44.533Z,55.42
2019-05-03T21:24:35.584Z,55.50
2019-05-03T21:27:07.941Z,55.62
2019-05-03T21:29:54.873Z,55.72
2019-05-03T21:32:32.282Z,55.81
2019-05-03T21:35:10.226Z,55.74
2019-05-03T21:37:42.298Z,55.73
2019-05-03T21:40:15.597Z,55.67
2019-05-03T21:42:47.476Z,55.60
2019-05-03T21:45:24.669Z,55.50
2019-05-03T21:48:15.075Z,55.44
2019-05-03T21:50:46.895Z,55.36
2019-05-03T21:53:18.729Z,55.24
2019-05-03T21:55:51.997Z,55.23
2019-05-03T21:58:24.965Z,55.24
2019-05-03T22:01:01.792Z,55.21
2019-05-03T22:03:35.348Z,55.24
2019-05-03T22:06:07.292Z,55.27
2019-05-03T22:08:39.069Z,55.32
2019-05-03T22:11:11.053Z,55.39
2019-05-03T22:13:45.328Z,55.51
2019-05-03T22:16:58.362Z,55.66
2019-05-03T22:19:46.415Z,55.77
2019-05-03T22:22:36.501Z,55.80
2019-05-03T22:25:09.131Z,55.77
2019-05-03T22:27:42.346Z,55.78
2019-05-03T22:30:29.339Z,55.80
2019-05-03T22:33:14.498Z,55.82
2019-05-03T22:36:08.295Z,55.81
2019-05-03T22:38:48.764Z,55.85
2019-05-03T22:41:42.562Z,55.93
2019-05-03T22:44:17.105Z,55.94
2019-05-03T22:47:11.363Z,55.95
2019-05-03T22:49:50.988Z,56.03
2019-05-03T22:52:22.735Z,56.12
2019-05-03T22:54:55.468Z,56.14
2019-05-03T22:57:27.390Z,56.24
2019-05-03T22:59:59.190Z,56.26
2019-05-03T23:02:31.661Z,56.23
2019-05-03T23:05:04.669Z,56.15
2019-05-03T23:07:37.501Z,56.11
2019-05-03T23:10:09.623Z,56.11
2019-05-03T23:12:41.340Z,56.13
2019-05-03T23:15:15.087Z,56.05
2019-05-03T23:17:47.102Z,56.04
2019-05-03T23:20:28.439Z,56.11
2019-05-03T23:23:00.156Z,56.22
2019-05-03T23:25:31.913Z,56.29
2019-05-03T23:28:04.302Z,56.31
2019-05-03T23:30:35.988Z,56.38
2019-05-03T23:33:07.831Z,56.37
2019-05-03T23:35:39.498Z,56.43
2019-05-03T23:38:11.218Z,56.42
2019-05-03T23:40:44.768Z,56.37
2019-05-03T23:43:17.375Z,56.40
2019-05-03T23:45:49.392Z,56.33
2019-05-03T23:48:21.483Z,56.30
2019-05-03T23:50:55.146Z,56.23
2019-05-03T23:53:26.951Z,56.25
2019-05-03T23:56:07.548Z,56.30
2019-05-03T23:58:39.284Z,56.39
